Las Vegas, Nevada
Traffic Map
Current Weather Conditions
Las Vegas, Nevada
Broken Clouds Light Rain
Broken Clouds
28°
Feels Like: 28°
Wind Chill: 28° Ceiling: 15000
Heat Index: 28° Visibility: 10mi
Dew Point: Wind: 16mph
Humidity: 31% Direction: 230° (SW)
Pressure: 29.98in Gusts: 0mph
Raw Report DataKLAS 290056Z 23014KT 10SM -RA FEW110 BKN150 BKN220 28/09 A2998 RMK AO2 RAB52 SLP131 ACC VC NE VIRGA DSNT W P0000 T02780094
Traffic Incident Summary
Active as of:
Severity:
Category:
InformationThere was an issue retrieving the traffic information for this location. Please try a different location or try again shortly.
Advertisements
Track Severe Weather on mobile